Terminal Aerodrome Forecast
Issued by NWS

Home | Current Version | Previous Version | Text Only | Print | Product List | Glossary On
Versions: 1 2 3 4 5 6 7 8 9 10 11 12 13 14 15 16
428
FTUS46 KPDT 270225 AAD
TAFALW
TAF AMD
KALW 270225Z 2702/2724 19020KT P6SM -RA SCT080 OVC100
      TEMPO 2702/2704 3SM RA BKN060 OVC090
     FM270400 26014G23KT P6SM FEW080 BKN100
     FM270700 26010KT P6SM FEW100 SCT200=

USA.gov is the U.S. government's official web portal to all federal, state and local government web resources and services.